Stations météo

Publicité
Toulon, France (7660): Température de l'air & dewpoint: 17.03.2017 13:00:00 - 23.03.2017 13:00:00 (CET)Toulon, France (7660): Vitesse du vent & gusts: 17.03.2017 13:00:00 - 23.03.2017 13:00:00 (CET)Toulon, France (7660): Direction du vent: 17.03.2017 13:00:00 - 23.03.2017 13:00:00 (CET)Toulon, France (7660): reduced air pressure: 17.03.2017 13:00:00 - 23.03.2017 13:00:00 (CET)Toulon, France (7660): Quantités de précipitations: 17.03.2017 13:00:00 - 23.03.2017 13:00:00 (CET)
Date & Time tt [°C] td [°C] ff [km/h] ff [knt] fx [km/h] fx [knt] dd ppp [hPa] rr [mm]
23.03.2017 13:00:00 - - - - - - - - -
23.03.2017 12:00:00 - - - - - - - - -
23.03.2017 11:00:00 - - - - - - - - -
23.03.2017 10:00:00 - - - - - - - - -
23.03.2017 09:00:00 - - - - - - - - -
23.03.2017 08:00:00 - - - - - - - - -
23.03.2017 07:00:00 - - - - - - - - -
23.03.2017 06:00:00 - - - - - - - - -
23.03.2017 05:00:00 - - - - - - - - -
23.03.2017 04:00:00 - - - - - - - - -
23.03.2017 03:00:00 - - - - - - - - -
23.03.2017 02:00:00 - - - - - - - - -
23.03.2017 01:00:00 - - - - - - - - -
23.03.2017 00:00:00 - - - - - - - - -
22.03.2017 23:00:00 - - - - - - - - -
22.03.2017 22:00:00 - - - - - - - - -
22.03.2017 21:00:00 - - - - - - - - -
22.03.2017 20:00:00 - - - - - - - - -
22.03.2017 19:00:00 - - - - - - - - -
22.03.2017 18:00:00 - - - - - - - - -
22.03.2017 17:00:00 - - - - - - - - -
22.03.2017 16:00:00 - - - - - - - - -
22.03.2017 15:00:00 - - - - - - - - -
22.03.2017 14:00:00 - - - - - - - - -
22.03.2017 13:00:00 - - - - - - - - -
22.03.2017 12:00:00 - - - - - - - - -
22.03.2017 11:00:00 - - - - - - - - -
22.03.2017 10:00:00 - - - - - - - - -
22.03.2017 09:00:00 - - - - - - - - -
22.03.2017 08:00:00 - - - - - - - - -
22.03.2017 07:00:00 - - - - - - - - -
22.03.2017 06:00:00 - - - - - - - - -
22.03.2017 05:00:00 - - - - - - - - -
22.03.2017 04:00:00 - - - - - - - - -
22.03.2017 03:00:00 - - - - - - - - -
22.03.2017 02:00:00 - - - - - - - - -
22.03.2017 01:00:00 - - - - - - - - -
22.03.2017 00:00:00 - - - - - - - - -
21.03.2017 23:00:00 - - - - - - - - -
21.03.2017 22:00:00 - - - - - - - - -
21.03.2017 21:00:00 - - - - - - - - -
21.03.2017 20:00:00 - - - - - - - - -
21.03.2017 19:00:00 - - - - - - - - -
21.03.2017 18:00:00 - - - - - - - - -
21.03.2017 17:00:00 - - - - - - - - -
21.03.2017 16:00:00 - - - - - - - - -
21.03.2017 15:00:00 - - - - - - - - -
21.03.2017 14:00:00 - - - - - - - - -
21.03.2017 13:00:00 - - - - - - - - -
21.03.2017 12:00:00 - - - - - - - - -
21.03.2017 11:00:00 - - - - - - - - -
21.03.2017 10:00:00 15,8 11,4 5 3 9 5 SE 1013,3 -
21.03.2017 09:00:00 15,5 10,5 5 3 9 5 W 1013,0 0,0
21.03.2017 08:00:00 12,8 10,0 5 3 8 4 WNW 1012,9 0,0
21.03.2017 07:00:00 12,6 9,8 4 2 8 4 E 1012,6 -
21.03.2017 06:00:00 12,0 9,6 2 1 8 4 WNW 1012,6 0,0
21.03.2017 05:00:00 12,7 10,1 2 1 5 3 SE 1012,2 0,0
21.03.2017 04:00:00 13,4 9,4 5 3 5 3 ESE 1012,1 -
21.03.2017 03:00:00 13,8 9,8 5 3 15 8 W 1012,5 0,0
21.03.2017 02:00:00 13,9 9,9 9 5 18 10 WNW 1013,0 0,0
21.03.2017 01:00:00 14,0 9,6 15 8 22 12 W 1013,4 -
21.03.2017 00:00:00 14,3 9,3 11 6 21 11 WNW 1013,7 0,0
20.03.2017 23:00:00 14,2 9,8 8 4 18 10 W 1014,1 0,0
20.03.2017 22:00:00 14,2 9,8 9 5 21 11 WNW 1014,1 -
20.03.2017 21:00:00 14,3 9,9 11 6 18 10 W 1014,2 0,0
20.03.2017 20:00:00 14,5 9,7 9 5 16 9 W 1014,1 0,0
20.03.2017 19:00:00 14,6 9,6 4 2 5 3 W 1013,6 -
20.03.2017 18:00:00 15,1 9,7 0 0 8 4 N 1013,5 0,0
20.03.2017 17:00:00 15,3 9,9 4 2 9 5 S 1013,5 0,0
20.03.2017 16:00:00 15,6 11,0 4 2 11 6 SSW 1013,6 -
20.03.2017 15:00:00 15,9 11,1 4 2 13 7 S 1013,7 0,0
20.03.2017 14:00:00 16,5 11,2 8 4 16 9 S 1013,9 0,0
20.03.2017 13:00:00 16,7 11,2 5 3 16 9 S 1014,2 -
20.03.2017 12:00:00 16,3 11,0 11 6 15 8 SSE 1014,3 0,0
20.03.2017 11:00:00 16,2 11,4 11 6 15 8 SSE 1014,6 0,0
20.03.2017 10:00:00 15,9 10,2 8 4 9 5 SSE 1014,7 -
20.03.2017 09:00:00 15,0 10,6 0 0 5 3 N 1014,5 0,0
20.03.2017 08:00:00 14,2 11,0 4 2 16 9 S 1014,2 0,0
20.03.2017 07:00:00 11,9 10,0 9 5 21 11 NE 1013,9 -
20.03.2017 06:00:00 11,3 9,6 8 4 13 7 NNE 1013,7 0,0
20.03.2017 05:00:00 10,8 9,4 2 1 8 4 WSW 1013,5 0,0
20.03.2017 04:00:00 11,2 9,6 0 0 5 3 N 1013,4 -
20.03.2017 03:00:00 11,1 9,7 4 2 8 4 NW 1013,5 0,0
20.03.2017 02:00:00 11,7 10,3 0 0 5 3 N 1013,7 0,0
20.03.2017 01:00:00 11,8 10,2 4 2 13 7 WNW 1013,7 -
20.03.2017 00:00:00 12,0 10,1 8 4 16 9 NNE 1013,9 0,0
19.03.2017 23:00:00 12,5 10,7 11 6 16 9 E 1013,9 0,0
19.03.2017 22:00:00 13,0 11,4 11 6 22 12 ESE 1013,9 -
19.03.2017 21:00:00 13,8 11,8 16 9 22 12 E 1013,5 0,0
19.03.2017 20:00:00 13,9 11,1 13 7 22 12 E 1013,5 0,0
19.03.2017 19:00:00 13,8 11,8 15 8 16 9 ESE 1013,3 -
19.03.2017 18:00:00 14,7 12,0 11 6 16 9 ESE 1013,0 0,0
19.03.2017 17:00:00 15,0 12,1 13 7 16 9 SE 1012,9 0,0
19.03.2017 16:00:00 15,1 11,9 13 7 16 9 SE 1013,0 -
19.03.2017 15:00:00 16,5 11,8 13 7 21 11 SE 1013,4 0,0
19.03.2017 14:00:00 18,7 12,9 15 8 18 10 SE 1013,4 0,0
19.03.2017 13:00:00 17,2 12,3 9 5 18 10 SSE 1013,7 -
19.03.2017 12:00:00 17,5 12,6 15 8 18 10 SE 1014,0 0,0
19.03.2017 11:00:00 16,7 11,8 13 7 15 8 SE 1014,0 0,0
19.03.2017 10:00:00 16,9 11,4 9 5 11 6 ESE 1013,7 -
19.03.2017 09:00:00 16,4 10,9 4 2 9 5 SSE 1013,5 0,0
19.03.2017 08:00:00 13,0 8,9 0 0 9 5 N 1013,0 0,0
19.03.2017 07:00:00 11,7 8,9 8 4 15 8 NW 1012,9 -
19.03.2017 06:00:00 12,6 10,1 9 5 18 10 ENE 1012,5 0,0
19.03.2017 05:00:00 12,7 10,1 11 6 16 9 ENE 1012,5 0,0
19.03.2017 04:00:00 13,2 9,1 8 4 16 9 E 1011,9 -
19.03.2017 03:00:00 14,6 6,9 15 8 29 16 N 1011,8 0,0
19.03.2017 02:00:00 15,1 7,6 18 10 37 20 WNW 1012,1 0,0
19.03.2017 01:00:00 15,9 7,9 22 12 46 25 W 1012,0 -
19.03.2017 00:00:00 16,9 7,0 28 15 52 28 WNW 1011,8 0,0
18.03.2017 23:00:00 16,7 7,3 31 17 50 27 WNW 1012,1 0,0
18.03.2017 22:00:00 17,2 6,7 22 12 46 25 W 1012,1 -
18.03.2017 21:00:00 16,9 7,8 16 9 54 29 W 1012,4 0,0
18.03.2017 20:00:00 18,2 7,0 31 17 63 34 NW 1012,3 0,0
18.03.2017 19:00:00 18,5 7,0 24 13 70 38 NW 1012,5 -
18.03.2017 18:00:00 19,0 6,5 29 16 70 38 NW 1011,7 0,0
18.03.2017 17:00:00 19,8 6,5 35 19 70 38 WNW 1012,0 0,0
18.03.2017 16:00:00 17,3 9,5 26 14 61 33 W 1012,6 -
18.03.2017 15:00:00 17,6 9,0 29 16 67 36 W 1013,1 0,0
18.03.2017 14:00:00 17,6 8,7 31 17 61 33 W 1014,0 0,0
18.03.2017 13:00:00 17,8 7,8 31 17 55 30 W 1014,7 -
18.03.2017 12:00:00 17,8 8,6 31 17 55 30 W 1015,4 0,0
18.03.2017 11:00:00 16,2 9,1 26 14 52 28 W 1015,7 0,0
18.03.2017 10:00:00 15,6 7,9 22 12 44 24 W 1016,0 -
18.03.2017 09:00:00 14,3 8,9 21 11 39 21 W 1015,9 0,0
18.03.2017 08:00:00 13,5 9,7 16 9 35 19 W 1016,2 0,0
18.03.2017 07:00:00 12,7 9,3 22 12 41 22 W 1015,9 -
18.03.2017 06:00:00 12,6 8,7 28 15 44 24 WNW 1015,9 0,0
18.03.2017 05:00:00 12,7 8,8 31 17 48 26 WNW 1015,7 0,0
18.03.2017 04:00:00 12,9 9,0 28 15 42 23 W 1015,8 -
18.03.2017 03:00:00 13,0 9,3 22 12 35 19 W 1016,1 0,2
18.03.2017 02:00:00 12,3 10,4 24 13 37 20 W 1016,7 0,0
18.03.2017 01:00:00 12,4 10,5 24 13 37 20 WNW 1017,2 -
18.03.2017 00:00:00 12,3 9,8 18 10 29 16 WNW 1017,3 0,0
17.03.2017 23:00:00 12,2 8,7 18 10 31 17 WNW 1018,3 0,0
17.03.2017 22:00:00 11,9 9,1 21 11 29 16 WNW 1018,7 -
17.03.2017 21:00:00 12,0 10,2 16 9 37 20 WNW 1018,7 0,0
17.03.2017 20:00:00 12,3 10,5 21 11 41 22 WNW 1018,7 0,0
17.03.2017 19:00:00 12,7 10,8 24 13 44 24 WNW 1018,4 -
17.03.2017 18:00:00 12,6 10,3 24 13 42 23 W 1018,7 0,0
17.03.2017 17:00:00 13,6 10,2 18 10 39 21 W 1018,8 0,0
17.03.2017 16:00:00 14,5 10,5 16 9 37 20 W 1019,3 -
17.03.2017 15:00:00 16,1 10,8 16 9 34 18 W 1019,8 0,0
17.03.2017 14:00:00 16,6 10,9 16 9 31 17 W 1020,4 0,0
17.03.2017 13:00:00 16,4 11,1 16 9 34 18 W 1021,3 -

tt = Température de l'air
td = dewpoint
ff = Vitesse du vent
fx = gusts
dd = Direction du vent
ppp = reduced air pressure
rr = Quantités de précipitations

stations d'obs. à proximité